Meteo Giornale » Osservazioni meteo Stati Uniti (USA) » Marshall-Ryan
ore: 16:56 - Osservazioni Meteo Marshall-Ryan
Lat. 44° 27' N Lon. 95° 49' W Alt. 359 metri s.l.m.
28 °C
Sereno
Temp. 24 Ore
19 °C
34 °C
Nord-Est
7.4 Km/h
Dew point 16 °C
Umidità 48 %
Visibilità 10 Km
Il sole sorge alle ore 06:45
Il sole tramonta alle ore 20:01
| Data e Ora | Cielo e Fenomeni | T °C | DP °C | Um. % | Pres. hPa | Vis. km | Vento km/h | |
|---|---|---|---|---|---|---|---|---|
| Oggi h: 16:56 | Sereno | 28 | 16 | 48 | 1013 | 10 | NE 7.4 | |
| Oggi h: 15:56 | Sereno | 28 | 16 | 48 | 1013 | 10 | N 9.3 | |
| Oggi h: 14:56 | Sereno | 28 | 14 | 42 | 1013 | 10 | NO 11.1 | |
| Oggi h: 13:56 | Sereno | 28 | 14 | 42 | 1013 | 10 | N 13 | |
| Oggi h: 12:56 | Sereno | 26 | 17 | 57 | 1013 | 10 | N 9.3 | |
| Oggi h: 11:56 | Sereno | 26 | 18 | 61 | 1013 | 10 | N/NO 14.8 | |
| Oggi h: 10:56 | Sereno | 24 | 18 | 69 | 1013 | 10 | N 14.8 | |
| Oggi h: 09:56 | Sereno | 22 | 18 | 78 | 1012 | 10 | N/NO 18.5 | |
| Oggi h: 08:56 | Sereno | 21 | 18 | 82 | 1012 | 10 | N/NO 18.5 | |
| Oggi h: 07:56 | Sereno | 21 | 19 | 88 | 1011 | 10 | NO 13 | |
| Oggi h: 06:56 | Sereno | 19 | 18 | 93 | 1010 | 14 | O 9.3 | |
| Oggi h: 05:56 | Sereno | 19 | 19 | 100 | 1009 | 10 | O 14.8 | |
| Oggi h: 04:56 | Sereno | 21 | 19 | 88 | 1009 | 10 | O/NO 7.4 | |
| Oggi h: 03:56 | Sereno | 22 | 19 | 83 | 1008 | 10 | O/NO 11.1 | |
| Oggi h: 02:56 | Sereno | 24 | 20 | 78 | 1007 | 10 | N 0 | |
| Oggi h: 01:56 | Sereno | 24 | 21 | 83 | 1007 | 10 | SO 13 | |
| Oggi h: 00:56 | Sereno | 24 | 21 | 83 | 1006 | 10 | SO 16.7 | |
| Ieri h: 23:56 | Sereno | 26 | 22 | 78 | 1007 | 10 | S/SO 14.8 | |
| Ieri h: 22:56 | Sereno | 26 | 23 | 83 | 1007 | 10 | SO 16.7 | |
| Ieri h: 21:56 | Sereno | 27 | 23 | 78 | 1006 | 10 | S/SO 20.3 | |
| Ieri h: 20:56 | Sereno | 28 | 23 | 74 | 1005 | 10 | S/SO 22.2 | |
| Ieri h: 19:56 | Sereno | 30 | 23 | 66 | 1005 | 10 | S 14.8 | |
| Ieri h: 18:56 | Sereno | 33 | 24 | 59 | 1005 | 10 | S 13 | |
| Ieri h: 17:56 | Sereno | 34 | 23 | 52 | 1005 | 10 | S 18.5 | |



